Time;durP1;ratioP1;P1;durP2;ratioP2;P2;SDS_P1;SDS_P2;PMS_P1;PMS_P2;Temp;Humidity;BMP_temperature;BMP_pressure;BME280_temperature;BME280_humidity;BME280_pressure;Samples;Min_cycle;Max_cycle;Signal;HPM_P1;HPM_P2
2021/07/13 00:00:45;;;;;;;5.53;3.30;;;;;;;20.83;78.31;99068.38;2210138;40;20050;-80
2021/07/13 00:02:15;;;;;;;8.10;3.15;;;;;;;20.78;78.50;99065.56;2208166;40;20031;-80
2021/07/13 00:03:48;;;;;;;5.53;2.70;;;;;;;20.77;78.62;99069.34;2212465;40;20042;-80
2021/07/13 00:05:27;;;;;;;4.93;3.10;;;;;;;20.83;78.48;99068.38;2214201;40;20042;-80
2021/07/13 00:07:00;;;;;;;6.90;2.92;;;;;;;20.82;78.24;99070.28;2214067;40;20026;-80
2021/07/13 00:08:32;;;;;;;6.82;3.20;;;;;;;20.86;78.44;99066.03;2211112;40;20030;-80
2021/07/13 00:10:05;;;;;;;5.50;2.90;;;;;;;20.93;78.34;99068.63;2210754;40;20030;-80
2021/07/13 00:11:37;;;;;;;5.60;3.22;;;;;;;21.00;78.17;99058.44;2208209;40;20101;-80
2021/07/13 00:13:10;;;;;;;4.95;3.28;;;;;;;21.04;77.88;99059.66;2210536;40;20027;-81
2021/07/13 00:14:42;;;;;;;5.35;3.03;;;;;;;21.04;77.97;99047.94;2204788;40;20053;-81
2021/07/13 00:16:16;;;;;;;6.63;2.53;;;;;;;21.00;77.93;99054.91;2208952;40;20130;-80
2021/07/13 00:17:48;;;;;;;4.70;2.97;;;;;;;20.96;78.09;99054.56;2210175;40;20026;-81
2021/07/13 00:19:20;;;;;;;4.80;2.55;;;;;;;20.88;78.47;99049.47;2209707;40;20048;-81
2021/07/13 00:20:52;;;;;;;4.55;2.70;;;;;;;20.92;78.47;99050.66;2204338;40;20061;-80
2021/07/13 00:22:24;;;;;;;5.72;3.13;;;;;;;20.96;78.42;99042.88;2208372;40;20050;-79
2021/07/13 00:23:56;;;;;;;6.93;3.53;;;;;;;20.96;78.63;99051.00;2213067;40;20041;-80
2021/07/13 00:25:29;;;;;;;4.47;2.78;;;;;;;20.94;78.54;99055.84;2218234;40;20478;-80
2021/07/13 00:27:01;;;;;;;4.70;2.67;;;;;;;20.95;78.35;99050.19;2214845;40;20049;-80
2021/07/13 00:28:34;;;;;;;5.72;2.60;;;;;;;20.87;78.27;99053.28;2215144;40;20025;-80
2021/07/13 00:30:11;;;;;;;5.57;2.72;;;;;;;20.86;78.65;99052.44;2216994;40;20021;-80
2021/07/13 00:31:43;;;;;;;5.35;3.08;;;;;;;20.90;78.29;99047.34;2215313;40;20074;-80
2021/07/13 00:33:19;;;;;;;5.18;2.60;;;;;;;20.92;78.47;99050.66;2218505;40;20057;-80
2021/07/13 00:34:59;;;;;;;4.50;2.60;;;;;;;20.94;78.35;99048.56;2219968;40;20030;-79
2021/07/13 00:36:31;;;;;;;4.97;2.88;;;;;;;20.99;78.19;99051.38;2215739;40;20038;-80
2021/07/13 00:38:05;;;;;;;6.38;2.70;;;;;;;21.01;77.98;99056.59;2216081;40;20049;-80
2021/07/13 00:39:36;;;;;;;4.90;2.38;;;;;;;21.00;77.93;99061.16;2216762;40;20045;-80
2021/07/13 00:41:07;;;;;;;4.93;3.00;;;;;;;20.99;77.89;99064.13;2211524;40;20472;-79
2021/07/13 00:42:39;;;;;;;4.85;2.38;;;;;;;21.01;77.72;99070.16;2209282;40;20037;-81
2021/07/13 00:44:13;;;;;;;6.13;2.72;;;;;;;21.00;77.57;99074.75;2208596;40;20074;-79
2021/07/13 00:45:45;;;;;;;4.05;2.22;;;;;;;21.00;77.46;99076.66;2212743;40;20040;-80
2021/07/13 00:47:20;;;;;;;7.38;2.55;;;;;;;21.03;77.38;99078.88;2210761;40;20038;-79
2021/07/13 00:48:52;;;;;;;4.43;2.10;;;;;;;21.05;77.44;99084.91;2214246;40;20054;-80
2021/07/13 00:50:26;;;;;;;4.97;2.22;;;;;;;21.10;77.24;99087.75;2221545;40;20046;-79
2021/07/13 00:51:59;;;;;;;4.75;2.60;;;;;;;21.11;77.19;99088.56;2216122;40;20060;-79
2021/07/13 00:53:33;;;;;;;3.92;2.30;;;;;;;20.96;77.49;99089.03;2215576;40;20029;-80
2021/07/13 00:55:08;;;;;;;4.85;2.70;;;;;;;20.90;77.67;99087.28;2215205;40;20034;-80
2021/07/13 00:57:19;;;;;;;4.97;2.30;;;;;;;20.90;77.72;99084.56;2222300;40;20143;-80
2021/07/13 00:58:51;;;;;;;4.53;2.42;;;;;;;20.81;78.04;99089.50;2217028;40;20022;-80
2021/07/13 01:00:24;;;;;;;5.65;2.45;;;;;;;20.78;78.13;99081.84;2215911;40;20049;-80
2021/07/13 01:02:05;;;;;;;5.45;2.90;;;;;;;20.74;78.07;99081.47;2218369;40;20060;-80
2021/07/13 01:03:43;;;;;;;6.70;3.08;;;;;;;20.68;78.19;99088.66;2215916;40;20049;-80
2021/07/13 01:05:18;;;;;;;4.75;2.88;;;;;;;20.59;79.04;99081.94;2220739;40;20045;-80
2021/07/13 01:07:00;;;;;;;6.80;3.20;;;;;;;20.53;79.28;99080.13;2216147;40;20006;-80
2021/07/13 01:08:49;;;;;;;5.80;2.85;;;;;;;20.55;79.42;99078.81;2219230;40;20043;-80
2021/07/13 01:10:29;;;;;;;6.20;2.67;;;;;;;20.58;79.17;99072.13;2216552;40;20029;-80
2021/07/13 01:12:10;;;;;;;6.03;3.38;;;;;;;20.64;79.36;99068.47;2208142;40;20029;-80
2021/07/13 01:13:44;;;;;;;8.25;3.67;;;;;;;20.61;79.34;99074.34;2210733;40;20038;-80
2021/07/13 01:15:19;;;;;;;4.72;3.00;;;;;;;20.53;79.85;99071.97;2220471;40;20034;-79
2021/07/13 01:17:03;;;;;;;5.40;2.80;;;;;;;20.49;79.84;99085.19;2220035;40;20077;-80
2021/07/13 01:18:41;;;;;;;6.30;2.60;;;;;;;20.52;79.90;99083.91;2214549;40;20045;-80
2021/07/13 01:20:52;;;;;;;6.88;3.72;;;;;;;20.61;79.82;99079.78;2212462;40;20037;-80
2021/07/13 01:22:28;;;;;;;5.55;2.90;;;;;;;20.67;79.80;99072.59;2202480;40;20042;-80
2021/07/13 01:24:21;;;;;;;7.50;3.38;;;;;;;20.70;79.43;99078.38;2214388;40;20029;-81
2021/07/13 01:26:02;;;;;;;5.68;3.08;;;;;;;20.69;79.60;99078.63;2214065;40;20057;-80
2021/07/13 01:27:40;;;;;;;;;;;;;;;20.66;79.94;99074.50;2214672;40;20033;-80
2021/07/13 01:29:16;;;;;;;5.13;3.35;;;;;;;20.72;79.95;99078.16;2216243;40;19941;-79
2021/07/13 01:30:53;;;;;;;5.45;3.20;;;;;;;20.72;79.96;99078.16;2210231;40;20319;-80
2021/07/13 01:32:28;;;;;;;5.05;3.45;;;;;;;20.75;79.94;99088.56;2209290;40;20034;-80
2021/07/13 01:34:04;;;;;;;5.75;3.38;;;;;;;20.69;80.06;99084.88;2210741;40;20498;-79
2021/07/13 01:35:42;;;;;;;7.28;2.70;;;;;;;20.69;80.31;99084.88;2203849;40;20039;-80
2021/07/13 01:37:15;;;;;;;5.35;3.95;;;;;;;20.73;80.45;99088.81;2208704;40;20082;-80
2021/07/13 01:38:49;;;;;;;6.90;3.95;;;;;;;20.67;80.50;99087.00;2208225;40;20045;-79
2021/07/13 01:40:23;;;;;;;6.10;4.10;;;;;;;20.66;80.71;99085.34;2209117;40;20030;-79
2021/07/13 01:41:59;;;;;;;6.18;3.75;;;;;;;20.70;80.57;99075.66;2207670;40;20054;-80
2021/07/13 01:43:32;;;;;;;9.65;4.68;;;;;;;20.70;80.34;99083.81;2206360;40;20038;-78
2021/07/13 01:45:05;;;;;;;6.50;4.25;;;;;;;20.63;80.63;99069.53;2204741;40;20065;-79
2021/07/13 01:46:40;;;;;;;5.57;3.28;;;;;;;20.55;80.80;99072.59;2210808;40;20040;-79
2021/07/13 01:48:16;;;;;;;5.32;3.45;;;;;;;20.53;80.97;99064.69;2209177;40;20329;-80
2021/07/13 01:49:48;;;;;;;4.88;3.20;;;;;;;20.56;80.81;99066.09;2208772;40;20043;-80
2021/07/13 01:51:21;;;;;;;6.65;3.63;;;;;;;20.59;80.80;99052.06;2215016;40;20081;-79
2021/07/13 01:52:55;;;;;;;6.65;4.22;;;;;;;20.59;80.41;99052.06;2211438;40;20050;-79
2021/07/13 01:54:29;;;;;;;7.35;4.05;;;;;;;20.54;80.94;99051.94;2215365;40;20045;-80
2021/07/13 01:56:05;;;;;;;7.85;4.40;;;;;;;20.51;80.87;99042.38;2212835;40;20034;-79
2021/07/13 01:57:37;;;;;;;5.95;4.50;;;;;;;20.46;81.14;99036.81;2209911;40;20030;-79
2021/07/13 01:59:13;;;;;;;5.63;4.28;;;;;;;20.44;81.51;99027.25;2207698;40;20031;-80
2021/07/13 02:00:46;;;;;;;6.63;4.53;;;;;;;20.42;81.69;99019.34;2203889;40;20051;-80
2021/07/13 02:02:20;;;;;;;5.00;3.60;;;;;;;20.37;81.69;99009.19;2203878;40;20039;-79
2021/07/13 02:03:54;;;;;;;8.27;3.38;;;;;;;20.35;81.91;99007.78;2197360;40;20047;-79
2021/07/13 02:05:30;;;;;;;5.20;2.70;;;;;;;20.35;81.97;99010.50;2203300;40;20418;-79
2021/07/13 02:07:05;;;;;;;4.97;2.78;;;;;;;20.35;81.67;99015.94;2204879;40;20060;-80
2021/07/13 02:08:38;;;;;;;5.20;2.55;;;;;;;20.37;81.81;99021.91;2204741;40;20061;-80
2021/07/13 02:10:12;;;;;;;4.15;2.30;;;;;;;20.42;81.69;99024.78;2204730;40;20068;-80
2021/07/13 02:11:45;;;;;;;9.25;2.40;;;;;;;20.46;81.20;99030.56;2205135;40;20100;-80
2021/07/13 02:13:17;;;;;;;4.35;2.20;;;;;;;20.50;81.20;99026.31;2210735;40;20116;-81
2021/07/13 02:14:49;;;;;;;4.05;2.03;;;;;;;20.52;81.23;99026.91;2210658;40;20038;-80
2021/07/13 02:16:24;;;;;;;5.95;3.25;;;;;;;20.51;80.60;99025.25;2204875;40;20038;-80
2021/07/13 02:17:57;;;;;;;6.30;3.25;;;;;;;20.47;80.95;99026.78;2204615;40;20046;-80
2021/07/13 02:19:30;;;;;;;4.03;2.20;;;;;;;20.49;80.79;99035.53;2213053;40;20053;-81
2021/07/13 02:21:14;;;;;;;5.07;2.30;;;;;;;20.53;80.30;99036.69;2193870;40;20051;-81
2021/07/13 02:22:47;;;;;;;6.38;2.40;;;;;;;20.54;80.27;99032.91;2208236;40;20035;-80
2021/07/13 02:24:19;;;;;;;4.68;2.90;;;;;;;20.53;80.08;99042.13;2213446;40;20057;-81
2021/07/13 02:25:56;;;;;;;5.78;2.92;;;;;;;20.49;80.38;99040.97;2217646;40;20131;-81
2021/07/13 02:27:32;;;;;;;4.40;2.75;;;;;;;20.46;80.20;99046.84;2222133;40;20111;-80
2021/07/13 02:29:14;;;;;;;6.45;2.97;;;;;;;20.45;80.44;99047.91;2217389;40;20080;-80
2021/07/13 02:30:51;;;;;;;6.40;3.08;;;;;;;20.45;80.16;99047.91;2209601;40;20038;-80
2021/07/13 02:32:27;;;;;;;5.45;3.15;;;;;;;20.35;80.26;99052.03;2213150;40;20080;-81
2021/07/13 02:34:06;;;;;;;5.65;3.05;;;;;;;20.23;80.80;99064.72;2214580;40;20046;-81
2021/07/13 02:41:13;;;;;;;6.43;2.55;;;;;;;20.01;81.92;99083.41;2210745;40;20053;-80
2021/07/13 02:43:01;;;;;;;5.28;2.53;;;;;;;19.98;81.79;99079.28;2200225;40;20303;-78
2021/07/13 02:44:41;;;;;;;6.18;2.65;;;;;;;19.93;81.78;99074.56;2203984;40;20050;-78
2021/07/13 02:46:15;;;;;;;6.50;2.88;;;;;;;19.90;82.14;99071.47;2207186;40;20045;-79
2021/07/13 02:47:50;;;;;;;6.47;2.70;;;;;;;19.82;82.58;99066.34;2209714;40;20049;-79
2021/07/13 02:49:26;;;;;;;5.13;2.45;;;;;;;19.73;82.51;99076.66;2203146;40;20046;-79
2021/07/13 02:51:10;;;;;;;5.95;2.88;;;;;;;19.62;83.15;99072.84;2203365;40;20039;-78
2021/07/13 02:52:49;;;;;;;4.88;2.28;;;;;;;19.59;83.81;99081.44;2205492;40;20035;-81
2021/07/13 03:01:32;;;;;;;5.30;2.60;;;;;;;19.39;83.32;99106.06;2205691;40;20055;-81
2021/07/13 03:03:10;;;;;;;4.53;2.40;;;;;;;19.33;83.84;99105.09;2213596;40;20054;-82
2021/07/13 03:10:24;;;;;;;4.63;1.88;;;;;;;19.10;83.81;99111.97;2197160;40;20422;-80
2021/07/13 03:18:50;;;;;;;4.65;2.03;;;;;;;19.33;83.76;99075.28;2220537;40;20038;-81
2021/07/13 03:20:34;;;;;;;5.65;2.78;;;;;;;19.26;83.42;99069.13;2222278;40;20137;-80
2021/07/13 03:22:25;;;;;;;5.50;2.40;;;;;;;19.30;83.33;99062.16;2220280;40;20028;-80
2021/07/13 03:24:06;;;;;;;5.97;2.65;;;;;;;19.26;83.25;99063.69;2221724;40;20060;-81
2021/07/13 03:33:52;;;;;;;6.07;2.97;;;;;;;19.41;83.83;99009.13;2205093;40;20098;-80
2021/07/13 03:35:25;;;;;;;4.93;2.13;;;;;;;19.45;83.71;99011.16;2207312;40;20067;-80
2021/07/13 03:36:58;;;;;;;4.38;1.90;;;;;;;19.49;83.39;99015.03;2213459;40;20364;-79
2021/07/13 03:38:30;;;;;;;6.00;2.17;;;;;;;19.52;83.50;99007.50;2211403;40;20030;-78
2021/07/13 03:40:02;;;;;;;5.00;2.10;;;;;;;19.55;83.33;99004.34;2207025;40;20037;-78
2021/07/13 03:41:35;;;;;;;5.72;2.05;;;;;;;19.61;83.40;99003.44;2204292;40;20437;-78
2021/07/13 03:43:09;;;;;;;4.75;2.00;;;;;;;19.63;82.91;99004.84;2209454;40;20314;-79
2021/07/13 03:44:41;;;;;;;5.45;2.60;;;;;;;19.61;82.94;98987.97;2205434;40;20050;-79
2021/07/13 03:46:13;;;;;;;5.32;2.35;;;;;;;19.62;83.10;98994.25;2205830;40;20064;-79
2021/07/13 03:47:49;;;;;;;5.10;2.47;;;;;;;19.59;82.94;98991.97;2206357;40;20027;-80
2021/07/13 03:49:25;;;;;;;4.65;2.65;;;;;;;19.54;83.26;98981.00;2202463;40;20394;-78
2021/07/13 03:50:57;;;;;;;3.88;2.22;;;;;;;19.56;83.01;98976.16;2201672;40;20038;-79
2021/07/13 03:52:29;;;;;;;4.65;2.47;;;;;;;19.58;83.17;98977.63;2201411;40;20043;-79
2021/07/13 03:54:00;;;;;;;4.15;2.13;;;;;;;19.60;82.97;98969.25;2201690;40;20050;-78
2021/07/13 03:55:33;;;;;;;4.97;2.13;;;;;;;19.58;82.79;98963.22;2204958;40;20064;-78
2021/07/13 03:57:06;;;;;;;5.30;2.00;;;;;;;19.59;83.19;98954.88;2207749;40;20042;-78
2021/07/13 03:58:38;;;;;;;6.07;2.47;;;;;;;19.53;82.74;98961.19;2195838;40;20046;-78
2021/07/13 04:00:12;;;;;;;3.80;2.03;;;;;;;19.51;83.08;98955.19;2195544;40;20050;-78
2021/07/13 04:01:44;;;;;;;6.60;2.50;;;;;;;19.56;82.59;98957.19;2196796;40;20039;-78
2021/07/13 04:03:18;;;;;;;4.38;2.38;;;;;;;19.53;82.30;98952.25;2197306;40;20051;-78
2021/07/13 04:04:51;;;;;;;5.32;2.03;;;;;;;19.45;82.58;98951.53;2204579;40;20026;-78
2021/07/13 04:06:23;;;;;;;8.82;2.50;;;;;;;19.43;82.72;98948.22;2209589;40;20041;-79
2021/07/13 04:07:55;;;;;;;5.97;2.63;;;;;;;19.45;82.87;98948.81;2207017;40;20042;-78
2021/07/13 04:09:31;;;;;;;5.63;2.13;;;;;;;19.48;82.97;98953.75;2203743;40;20049;-79
2021/07/13 04:11:02;;;;;;;8.10;3.10;;;;;;;19.43;82.44;98947.38;2198348;40;20035;-78
2021/07/13 04:12:34;;;;;;;5.63;2.20;;;;;;;19.43;82.58;98944.66;2196532;40;20043;-78
2021/07/13 04:14:07;;;;;;;6.57;1.70;;;;;;;19.44;82.62;98944.44;2197274;40;20035;-78
2021/07/13 04:15:39;;;;;;;5.03;2.00;;;;;;;19.45;82.35;98939.84;2197418;40;20043;-79
2021/07/13 04:17:11;;;;;;;4.65;1.92;;;;;;;19.45;82.67;98947.97;2201564;40;20030;-80
2021/07/13 04:18:43;;;;;;;5.13;2.00;;;;;;;19.47;82.46;98943.16;2200280;40;20042;-78
2021/07/13 04:20:16;;;;;;;4.88;2.10;;;;;;;19.46;82.52;98953.16;2199964;40;20041;-79
2021/07/13 04:21:48;;;;;;;5.25;1.77;;;;;;;19.51;82.28;98951.66;2208145;40;20040;-79
2021/07/13 04:23:20;;;;;;;7.10;2.92;;;;;;;19.53;82.29;98952.25;2207665;40;20034;-79
2021/07/13 04:24:51;;;;;;;6.80;2.55;;;;;;;19.53;82.20;98957.69;2204640;40;20058;-80
2021/07/13 04:26:24;;;;;;;6.47;2.72;;;;;;;19.52;82.35;98956.03;2204838;40;20035;-79
2021/07/13 04:27:56;;;;;;;6.05;2.90;;;;;;;19.49;82.41;98955.41;2204260;40;20045;-79
2021/07/13 04:29:30;;;;;;;7.70;2.97;;;;;;;19.43;82.33;98944.66;2191193;40;20043;-79
2021/07/13 04:31:03;;;;;;;7.50;2.72;;;;;;;19.33;82.69;98950.66;2208695;40;20127;-78
2021/07/13 04:32:35;;;;;;;5.75;2.50;;;;;;;19.28;82.94;98943.19;2214162;40;20053;-78
2021/07/13 04:34:10;;;;;;;5.68;2.63;;;;;;;19.29;82.75;98957.56;2206894;40;20045;-78
2021/07/13 04:35:42;;;;;;;8.60;2.38;;;;;;;19.31;82.62;98958.16;2203822;40;20038;-79
2021/07/13 04:37:14;;;;;;;5.57;2.95;;;;;;;19.36;82.68;98958.31;2204056;40;20049;-80
2021/07/13 04:38:45;;;;;;;4.68;2.17;;;;;;;19.38;82.20;98958.91;2199653;40;20556;-78
2021/07/13 04:40:17;;;;;;;6.05;2.60;;;;;;;19.39;82.27;98957.03;2197077;40;20043;-79
2021/07/13 04:41:49;;;;;;;5.32;2.38;;;;;;;19.41;82.15;98955.75;2198544;40;20026;-79
2021/07/13 04:43:21;;;;;;;5.50;2.58;;;;;;;19.43;81.64;98939.25;2201290;40;20050;-79
2021/07/13 04:44:53;;;;;;;4.80;2.65;;;;;;;19.37;81.99;98932.84;2196759;40;20039;-79
2021/07/13 04:46:24;;;;;;;6.78;2.80;;;;;;;19.36;82.09;98939.34;2197404;40;20035;-79
2021/07/13 04:47:56;;;;;;;4.82;2.65;;;;;;;19.36;82.22;98943.94;2209422;40;20034;-79
2021/07/13 04:49:31;;;;;;;6.55;2.45;;;;;;;19.36;82.41;98936.66;2207823;40;20038;-78
2021/07/13 04:51:04;;;;;;;5.10;2.25;;;;;;;19.39;82.08;98930.75;2203580;40;20120;-79
2021/07/13 04:52:36;;;;;;;5.68;2.50;;;;;;;19.42;82.26;98935.72;2203179;40;20034;-79
2021/07/13 04:54:07;;;;;;;5.53;3.00;;;;;;;19.46;81.88;98925.25;2198008;40;20031;-79
2021/07/13 04:55:39;;;;;;;4.65;2.40;;;;;;;19.51;81.78;98929.97;2196671;40;20051;-79
2021/07/13 04:57:10;;;;;;;4.82;2.22;;;;;;;19.53;81.38;98922.44;2197009;40;20189;-79
2021/07/13 04:58:42;;;;;;;5.43;2.40;;;;;;;19.53;81.64;98927.88;2196977;40;20039;-79
2021/07/13 05:00:15;;;;;;;5.18;2.00;;;;;;;19.61;81.33;98922.09;2196947;40;20039;-79
2021/07/13 05:01:47;;;;;;;4.88;2.28;;;;;;;19.69;81.71;98915.53;2196898;40;20039;-79
2021/07/13 05:03:19;;;;;;;7.05;2.95;;;;;;;19.69;81.32;98926.38;2197220;40;20050;-79
2021/07/13 05:04:51;;;;;;;4.38;2.30;;;;;;;19.69;81.58;98915.53;2196855;40;20039;-79
2021/07/13 05:06:24;;;;;;;5.18;2.53;;;;;;;19.71;81.60;98910.69;2201294;40;20283;-80
2021/07/13 05:07:55;;;;;;;6.50;2.40;;;;;;;19.75;81.20;98904.56;2202423;40;20035;-80
2021/07/13 05:09:27;;;;;;;5.47;2.50;;;;;;;19.76;81.26;98906.22;2202494;40;20035;-80
2021/07/13 05:10:59;;;;;;;4.43;2.05;;;;;;;19.82;81.27;98906.38;2208450;40;20046;-79
2021/07/13 05:12:30;;;;;;;5.50;2.58;;;;;;;19.84;81.02;98905.06;2204024;40;20035;-79
2021/07/13 05:14:03;;;;;;;6.88;2.72;;;;;;;19.86;81.22;98904.84;2208931;40;20084;-79
2021/07/13 05:15:34;;;;;;;5.25;1.98;;;;;;;19.91;80.92;98915.84;2209103;40;20053;-79
2021/07/13 05:17:06;;;;;;;4.32;2.40;;;;;;;19.90;80.64;98916.91;2209523;40;20294;-79
2021/07/13 05:18:38;;;;;;;6.50;2.70;;;;;;;19.79;81.12;98918.47;2204653;40;20038;-78
2021/07/13 05:20:13;;;;;;;5.57;2.55;;;;;;;19.72;81.19;98917.75;2203166;40;20049;-80
2021/07/13 05:21:50;;;;;;;4.90;2.40;;;;;;;19.74;81.20;98923.78;2202216;40;20053;-80
2021/07/13 05:23:20;;;;;;;7.13;2.45;;;;;;;19.76;81.43;98916.25;2203940;40;20046;-80
2021/07/13 05:24:52;;;;;;;4.25;2.08;;;;;;;19.83;81.27;98916.16;2205877;40;20335;-81
2021/07/13 05:26:25;;;;;;;5.30;2.70;;;;;;;19.85;81.24;98931.16;2203634;40;20038;-78
2021/07/13 05:27:56;;;;;;;5.32;2.17;;;;;;;19.85;81.05;98922.16;2199581;40;20407;-79
2021/07/13 05:29:28;;;;;;;5.90;2.47;;;;;;;19.90;80.59;98919.59;2202783;40;20038;-81
2021/07/13 05:31:00;;;;;;;5.50;2.97;;;;;;;19.93;80.81;98919.97;2205994;40;20058;-78
2021/07/13 05:32:31;;;;;;;4.05;1.80;;;;;;;19.95;80.36;98911.59;2207170;40;20092;-79
2021/07/13 05:34:03;;;;;;;4.13;1.77;;;;;;;19.99;80.27;98907.34;2212397;40;20034;-79
2021/07/13 05:35:35;;;;;;;4.88;1.85;;;;;;;20.07;79.87;98915.16;2204855;40;20042;-79
2021/07/13 05:37:08;;;;;;;5.53;3.30;;;;;;;20.15;79.58;98921.28;2204557;40;20057;-79
2021/07/13 05:38:39;;;;;;;4.35;2.17;;;;;;;20.15;79.42;98922.13;2203525;40;20034;-79
2021/07/13 05:40:12;;;;;;;4.05;2.00;;;;;;;20.19;79.32;98919.75;2203810;40;20046;-79
2021/07/13 05:41:44;;;;;;;4.97;2.35;;;;;;;20.27;79.50;98925.63;2203191;40;20050;-79
2021/07/13 05:43:16;;;;;;;4.75;2.28;;;;;;;20.31;79.22;98930.59;2203836;40;20054;-79
2021/07/13 05:44:47;;;;;;;6.32;2.17;;;;;;;20.29;78.51;98921.88;2201691;40;20027;-79
2021/07/13 05:46:19;;;;;;;4.72;1.92;;;;;;;20.26;78.36;98923.19;2203952;40;20069;-78
2021/07/13 05:47:50;;;;;;;5.93;1.77;;;;;;;20.29;78.17;98922.72;2206044;40;20037;-79
2021/07/13 05:49:21;;;;;;;8.68;1.90;;;;;;;20.36;77.64;98918.00;2208944;40;20394;-80
2021/07/13 05:50:54;;;;;;;4.47;2.20;;;;;;;20.44;77.56;98921.41;2209453;40;20049;-80
2021/07/13 05:52:28;;;;;;;3.58;1.70;;;;;;;20.47;77.69;98923.66;2206606;40;20041;-78
2021/07/13 05:54:00;;;;;;;5.53;4.03;;;;;;;20.48;77.91;98917.97;2207514;40;20043;-79
2021/07/13 05:55:32;;;;;;;4.40;2.60;;;;;;;20.52;78.17;98921.03;2203219;40;20065;-79
2021/07/13 05:57:04;;;;;;;4.35;2.40;;;;;;;20.51;78.11;98916.66;2207399;40;20045;-79
2021/07/13 05:58:35;;;;;;;4.00;2.20;;;;;;;20.51;77.88;98908.53;2214064;40;20042;-80
2021/07/13 06:00:09;;;;;;;8.25;2.58;;;;;;;20.49;77.92;98916.91;2212187;40;20034;-79
2021/07/13 06:01:41;;;;;;;5.78;2.08;;;;;;;20.53;77.91;98917.25;2205412;40;20397;-79
2021/07/13 06:03:13;;;;;;;6.53;2.28;;;;;;;20.54;77.85;98919.75;2203345;40;20038;-79
2021/07/13 06:06:17;;;;;;;4.82;2.17;;;;;;;20.62;77.54;98915.81;2199504;40;20118;-84
2021/07/13 06:07:50;;;;;;;7.45;4.07;;;;;;;20.66;77.06;98921.59;2200288;40;20035;-83
2021/07/13 06:09:22;;;;;;;6.50;3.25;;;;;;;20.65;77.19;98925.38;2200301;40;20113;-83
2021/07/13 06:10:54;;;;;;;6.45;2.72;;;;;;;20.66;76.79;98922.44;2201037;40;20039;-83
2021/07/13 06:12:25;;;;;;;3.35;1.65;;;;;;;20.72;76.30;98931.53;2201326;40;20054;-82
2021/07/13 06:13:57;;;;;;;4.97;2.10;;;;;;;20.73;76.44;98925.88;2200913;40;20031;-83
2021/07/13 06:15:29;;;;;;;4.78;1.80;;;;;;;20.76;76.33;98927.28;2200414;40;20050;-83
2021/07/13 06:16:59;;;;;;;3.95;1.85;;;;;;;20.79;76.76;98931.41;2200859;40;20039;-82
2021/07/13 06:18:31;;;;;;;3.58;1.55;;;;;;;20.79;76.87;98931.41;2200813;40;20035;-83
2021/07/13 06:20:03;;;;;;;6.10;1.85;;;;;;;20.81;76.92;98932.00;2200731;40;20038;-86
2021/07/13 06:21:35;;;;;;;4.10;2.00;;;;;;;20.79;76.94;98931.41;2200504;40;20043;-83
2021/07/13 06:23:07;;;;;;;4.85;1.65;;;;;;;20.77;76.84;98928.13;2202517;40;20045;-83
2021/07/13 06:24:40;;;;;;;3.45;1.83;;;;;;;20.76;77.06;98937.34;2202623;40;20035;-83
2021/07/13 06:26:11;;;;;;;4.32;2.17;;;;;;;20.75;76.99;98930.25;2202794;40;20035;-83
2021/07/13 06:27:43;;;;;;;5.65;2.50;;;;;;;20.75;76.78;98925.63;2203064;40;20038;-83
2021/07/13 06:29:15;;;;;;;7.13;3.15;;;;;;;20.75;76.71;98927.53;2196958;40;20035;-83
2021/07/13 06:30:47;;;;;;;5.88;2.63;;;;;;;20.75;77.00;98928.34;2197989;40;20400;-83
2021/07/13 06:32:18;;;;;;;6.53;2.72;;;;;;;20.76;76.96;98934.63;2196717;40;20494;-82
2021/07/13 06:33:50;;;;;;;9.02;3.30;;;;;;;20.71;77.12;98940.75;2203232;40;20031;-80
2021/07/13 06:35:22;;;;;;;6.07;2.92;;;;;;;20.64;77.52;98940.84;2208743;40;20065;-81
2021/07/13 06:36:53;;;;;;;5.32;2.60;;;;;;;20.62;78.43;98937.53;2198726;40;20027;-81
2021/07/13 06:38:26;;;;;;;7.53;3.22;;;;;;;20.61;78.81;98946.75;2197534;40;20035;-83
2021/07/13 06:39:58;;;;;;;6.47;3.25;;;;;;;20.57;79.32;98956.44;2200294;40;20015;-82
2021/07/13 06:41:30;;;;;;;5.25;2.60;;;;;;;20.56;79.25;98950.19;2197634;40;20434;-83
2021/07/13 06:43:02;;;;;;;6.63;2.67;;;;;;;20.55;79.36;98953.97;2200869;40;20433;-82
2021/07/13 06:44:33;;;;;;;5.38;2.45;;;;;;;20.53;79.56;98958.81;2201613;40;20049;-81
2021/07/13 06:46:04;;;;;;;6.93;2.70;;;;;;;20.52;79.39;98962.59;2200693;40;20109;-79
2021/07/13 06:47:36;;;;;;;6.40;3.63;;;;;;;20.47;79.47;98962.47;2199488;40;20090;-80
2021/07/13 06:49:07;;;;;;;6.82;3.13;;;;;;;20.47;79.67;98969.78;2198277;40;20031;-79
2021/07/13 06:50:39;;;;;;;10.25;3.10;;;;;;;20.47;79.37;98975.22;2202226;40;20122;-81
2021/07/13 06:52:11;;;;;;;6.10;2.83;;;;;;;20.37;79.74;98976.63;2200212;40;20053;-80
2021/07/13 06:53:44;;;;;;;5.32;2.63;;;;;;;20.31;80.20;98984.88;2195301;40;20042;-80
2021/07/13 06:55:16;;;;;;;6.03;2.92;;;;;;;20.27;80.15;98985.34;2196275;40;20031;-80
2021/07/13 06:56:46;;;;;;;8.02;3.08;;;;;;;20.23;80.36;98983.31;2201504;40;20486;-81
2021/07/13 06:58:18;;;;;;;5.90;2.95;;;;;;;20.18;80.55;98980.50;2201037;40;20043;-80
2021/07/13 06:59:50;;;;;;;5.20;2.50;;;;;;;20.18;80.71;98975.06;2198182;40;20043;-81
2021/07/13 07:01:22;;;;;;;6.72;3.95;;;;;;;20.24;80.68;98968.69;2199778;40;20044;-80
2021/07/13 07:02:54;;;;;;;6.68;3.05;;;;;;;20.26;80.21;98966.59;2199646;40;20043;-81
2021/07/13 07:04:26;;;;;;;5.22;2.70;;;;;;;20.27;80.08;98962.81;2187629;40;20043;-80
2021/07/13 07:05:58;;;;;;;4.47;2.40;;;;;;;20.28;79.87;98959.03;2205575;40;20059;-80
2021/07/13 07:07:28;;;;;;;6.55;2.95;;;;;;;20.35;80.25;98959.75;2207396;40;20062;-81
2021/07/13 07:09:01;;;;;;;5.35;2.88;;;;;;;20.40;80.23;98965.28;2207733;40;20052;-81
2021/07/13 07:10:35;;;;;;;6.82;2.80;;;;;;;20.35;80.01;98965.19;2203062;40;20046;-81
2021/07/13 07:12:07;;;;;;;7.28;3.20;;;;;;;20.32;80.07;98971.06;2208306;40;20038;-81
2021/07/13 07:13:39;;;;;;;4.38;2.78;;;;;;;20.24;80.52;98971.41;2206835;40;20042;-81
2021/07/13 07:15:11;;;;;;;7.63;3.35;;;;;;;20.17;80.81;98981.56;2208024;40;20061;-81
2021/07/13 07:16:42;;;;;;;5.47;2.50;;;;;;;20.15;80.78;98978.25;2214834;40;20026;-82
2021/07/13 07:18:14;;;;;;;6.30;2.90;;;;;;;20.14;80.99;98972.00;2212714;40;20039;-83
2021/07/13 07:19:45;;;;;;;7.57;2.63;;;;;;;20.10;81.21;98968.09;2211023;40;20022;-80
2021/07/13 07:21:17;;;;;;;5.95;2.65;;;;;;;20.10;80.94;98963.50;2208172;40;20049;-80
2021/07/13 07:22:49;;;;;;;7.32;2.97;;;;;;;20.12;81.24;98965.16;2210797;40;20712;-81
2021/07/13 07:24:22;;;;;;;6.60;2.95;;;;;;;20.07;81.00;98968.59;2209791;40;20175;-81
2021/07/13 07:25:54;;;;;;;6.70;2.67;;;;;;;19.98;81.20;98968.09;2208290;40;20050;-80
2021/07/13 07:27:25;;;;;;;5.45;2.47;;;;;;;19.94;81.35;98969.59;2209483;40;20543;-83
2021/07/13 07:28:57;;;;;;;5.78;2.70;;;;;;;19.92;81.93;98967.13;2212860;40;20034;-81
2021/07/13 07:30:29;;;;;;;5.15;2.70;;;;;;;19.95;81.89;98968.53;2215690;40;20030;-80
2021/07/13 07:32:01;;;;;;;5.85;2.95;;;;;;;20.01;81.90;98969.50;2208223;40;20430;-80
2021/07/13 07:33:32;;;;;;;4.95;2.65;;;;;;;20.05;81.82;98974.22;2209509;40;20022;-81
2021/07/13 07:35:05;;;;;;;6.93;2.63;;;;;;;20.09;81.87;98971.88;2210354;40;20022;-81
2021/07/13 07:36:37;;;;;;;5.25;2.55;;;;;;;20.10;81.52;98982.50;2204773;40;20050;-81
2021/07/13 07:38:10;;;;;;;5.25;2.33;;;;;;;20.10;81.54;98968.94;2207596;40;20042;-81
2021/07/13 07:39:43;;;;;;;4.78;2.40;;;;;;;20.12;81.29;98973.31;2215940;40;20027;-81
2021/07/13 07:41:15;;;;;;;6.82;2.75;;;;;;;20.09;81.24;98977.28;2210335;40;20042;-80
2021/07/13 07:42:48;;;;;;;5.28;2.30;;;;;;;20.00;81.08;98968.69;2207722;40;20042;-82
2021/07/13 07:44:23;;;;;;;5.43;2.30;;;;;;;19.99;81.04;98977.88;2208199;40;20022;-81
2021/07/13 07:45:55;;;;;;;4.70;2.30;;;;;;;19.96;81.09;98975.63;2212255;40;20058;-81
2021/07/13 07:47:25;;;;;;;6.47;2.00;;;;;;;19.97;81.36;98988.13;2209714;40;20044;-80
2021/07/13 07:48:59;;;;;;;5.55;2.70;;;;;;;19.94;81.49;98992.13;2214345;40;20030;-82
2021/07/13 07:50:32;;;;;;;4.93;2.70;;;;;;;19.93;81.63;99003.22;2212824;40;20054;-80
2021/07/13 07:52:03;;;;;;;6.35;2.80;;;;;;;19.89;81.59;99002.84;2203975;40;20241;-81
2021/07/13 07:53:35;;;;;;;8.18;2.72;;;;;;;19.85;81.88;99006.22;2207669;40;20023;-79
2021/07/13 07:55:09;;;;;;;4.90;2.40;;;;;;;19.84;82.21;99018.13;2204998;40;20059;-80
2021/07/13 07:56:41;;;;;;;15.43;3.90;;;;;;;19.84;82.01;99008.09;2206853;40;20024;-81